EJU36NP LIMC-LKPR
Flight info
| Callsign | EJU36NP |
|---|---|
| Flight time | 0h 55m |
| Altitude | 34000 |
| Route | OSKOR DCT NESTI DCT TAGIP DCT VESAL DCT MOBDO DCT VERDA DCT NEMAL DCT MEDEL DCT APRAQ |
| Aircraft | A21N/M-SDE2E3FGHIRWXY/LB1 |
Departure
| Time | 2026-05-07 20:02 |
|---|---|
| Airport | Milan Malpensa International Airport (LIMC) |
Arrival
| Time | 2026-05-07 20:57 |
|---|---|
| Airport | Václav Havel Airport Prague (LKPR) |
| Time | Latitude | Longitude | Altitude | Speed | Heading |
|---|---|---|---|---|---|
| 2026-05-07 19:36 | 45.64527 | 8.72490 | 764 ft | 0 kts | 346° |
| 2026-05-07 19:50 | 45.64513 | 8.72494 | 764 ft | 2 kts | 346° |
| 2026-05-07 19:50 | 45.64498 | 8.72500 | 763 ft | 2 kts | 346° |
| 2026-05-07 19:50 | 45.64484 | 8.72505 | 763 ft | 1 kts | 346° |
| 2026-05-07 19:51 | 45.64474 | 8.72508 | 763 ft | 2 kts | 328° |
| 2026-05-07 19:51 | 45.64465 | 8.72525 | 763 ft | 2 kts | 285° |
| 2026-05-07 19:51 | 45.64464 | 8.72539 | 763 ft | 0 kts | 261° |
| 2026-05-07 19:51 | 45.64466 | 8.72549 | 763 ft | 0 kts | 258° |
| 2026-05-07 19:53 | 45.64465 | 8.72548 | 763 ft | 0 kts | 259° |
| 2026-05-07 19:54 | 45.64463 | 8.72534 | 763 ft | 2 kts | 259° |
| 2026-05-07 19:54 | 45.64458 | 8.72492 | 763 ft | 5 kts | 259° |
| 2026-05-07 19:54 | 45.64431 | 8.72439 | 763 ft | 8 kts | 201° |
| 2026-05-07 19:54 | 45.64358 | 8.72452 | 761 ft | 12 kts | 169° |
| 2026-05-07 19:55 | 45.64262 | 8.72479 | 759 ft | 15 kts | 169° |
| 2026-05-07 19:55 | 45.64159 | 8.72507 | 757 ft | 15 kts | 169° |
| 2026-05-07 19:55 | 45.64054 | 8.72539 | 755 ft | 15 kts | 161° |
| 2026-05-07 19:55 | 45.63942 | 8.72575 | 753 ft | 17 kts | 169° |
| 2026-05-07 19:56 | 45.63820 | 8.72609 | 751 ft | 18 kts | 169° |
| 2026-05-07 19:56 | 45.63690 | 8.72645 | 748 ft | 19 kts | 169° |
| 2026-05-07 19:56 | 45.63552 | 8.72684 | 745 ft | 20 kts | 169° |
| 2026-05-07 19:56 | 45.63407 | 8.72724 | 742 ft | 21 kts | 169° |
| 2026-05-07 19:57 | 45.63257 | 8.72766 | 739 ft | 22 kts | 169° |
| 2026-05-07 19:57 | 45.63100 | 8.72810 | 736 ft | 23 kts | 169° |
| 2026-05-07 19:57 | 45.62940 | 8.72854 | 732 ft | 23 kts | 170° |
| 2026-05-07 19:57 | 45.62775 | 8.72899 | 729 ft | 24 kts | 169° |
| 2026-05-07 19:58 | 45.62608 | 8.72945 | 725 ft | 24 kts | 169° |
| 2026-05-07 19:58 | 45.62437 | 8.72992 | 721 ft | 25 kts | 169° |
| 2026-05-07 19:58 | 45.62265 | 8.73038 | 717 ft | 25 kts | 169° |
| 2026-05-07 19:58 | 45.62088 | 8.73088 | 713 ft | 25 kts | 169° |
| 2026-05-07 19:59 | 45.61911 | 8.73136 | 709 ft | 25 kts | 169° |
| 2026-05-07 19:59 | 45.61784 | 8.73174 | 706 ft | 15 kts | 161° |
| 2026-05-07 19:59 | 45.61709 | 8.73285 | 703 ft | 16 kts | 123° |
| 2026-05-07 19:59 | 45.61641 | 8.73430 | 701 ft | 18 kts | 124° |
| 2026-05-07 20:00 | 45.61589 | 8.73570 | 700 ft | 13 kts | 99° |
| 2026-05-07 20:00 | 45.61595 | 8.73702 | 700 ft | 12 kts | 80° |
| 2026-05-07 20:00 | 45.61633 | 8.73742 | 700 ft | 5 kts | 346° |
| 2026-05-07 20:00 | 45.61636 | 8.73741 | 700 ft | 0 kts | 348° |
| 2026-05-07 20:01 | 45.61637 | 8.73741 | 700 ft | 1 kts | 348° |
| 2026-05-07 20:01 | 45.61856 | 8.73679 | 704 ft | 73 kts | 349° |
| 2026-05-07 20:01 | 45.62613 | 8.73471 | 722 ft | 145 kts | 349° |
| 2026-05-07 20:01 | 45.63745 | 8.73195 | 1077 ft | 172 kts | 356° |
| 2026-05-07 20:02 | 45.64941 | 8.73167 | 1838 ft | 176 kts | 2° |
| 2026-05-07 20:02 | 45.66061 | 8.73578 | 2693 ft | 172 kts | 36° |
| 2026-05-07 20:02 | 45.66917 | 8.74815 | 3258 ft | 184 kts | 49° |
| 2026-05-07 20:02 | 45.67806 | 8.76265 | 3795 ft | 201 kts | 49° |
| 2026-05-07 20:03 | 45.68741 | 8.77768 | 4472 ft | 209 kts | 49° |
| 2026-05-07 20:03 | 45.69716 | 8.79294 | 5255 ft | 212 kts | 46° |
| 2026-05-07 20:03 | 45.70813 | 8.80838 | 5753 ft | 232 kts | 44° |
| 2026-05-07 20:03 | 45.71968 | 8.82496 | 6550 ft | 238 kts | 53° |
| 2026-05-07 20:04 | 45.72573 | 8.84633 | 7397 ft | 241 kts | 85° |
| 2026-05-07 20:04 | 45.72311 | 8.86956 | 8236 ft | 245 kts | 115° |
| 2026-05-07 20:04 | 45.71366 | 8.88984 | 9080 ft | 248 kts | 124° |
| 2026-05-07 20:04 | 45.70637 | 8.91259 | 9638 ft | 262 kts | 98° |
| 2026-05-07 20:05 | 45.70520 | 8.93907 | 10159 ft | 278 kts | 90° |
| 2026-05-07 20:05 | 45.70515 | 8.96760 | 10652 ft | 296 kts | 90° |
| 2026-05-07 20:05 | 45.70482 | 8.99759 | 11117 ft | 314 kts | 91° |
| 2026-05-07 20:05 | 45.70403 | 9.02964 | 11551 ft | 332 kts | 92° |
| 2026-05-07 20:06 | 45.70286 | 9.06355 | 11958 ft | 351 kts | 93° |
| 2026-05-07 20:06 | 45.70141 | 9.09891 | 12344 ft | 367 kts | 94° |
| 2026-05-07 20:06 | 45.69978 | 9.13558 | 12988 ft | 376 kts | 94° |
| 2026-05-07 20:06 | 45.69820 | 9.17320 | 13756 ft | 380 kts | 91° |
| 2026-05-07 20:07 | 45.70215 | 9.21014 | 14412 ft | 386 kts | 69° |
| 2026-05-07 20:07 | 45.71548 | 9.24355 | 15173 ft | 389 kts | 54° |
| 2026-05-07 20:07 | 45.73152 | 9.27453 | 15869 ft | 393 kts | 52° |
| 2026-05-07 20:07 | 45.74813 | 9.30604 | 16542 ft | 398 kts | 52° |
| 2026-05-07 20:08 | 45.76452 | 9.33801 | 17213 ft | 402 kts | 53° |
| 2026-05-07 20:08 | 45.78067 | 9.37041 | 17866 ft | 407 kts | 54° |
| 2026-05-07 20:08 | 45.79706 | 9.40397 | 18487 ft | 412 kts | 54° |
| 2026-05-07 20:08 | 45.81336 | 9.43782 | 19091 ft | 417 kts | 54° |
| 2026-05-07 20:09 | 45.82975 | 9.47215 | 19713 ft | 421 kts | 54° |
| 2026-05-07 20:09 | 45.84636 | 9.50714 | 20314 ft | 425 kts | 54° |
| 2026-05-07 20:09 | 45.86303 | 9.54239 | 20888 ft | 429 kts | 54° |
| 2026-05-07 20:10 | 45.89657 | 9.61359 | 21988 ft | 438 kts | 54° |
| 2026-05-07 20:10 | 45.91364 | 9.64992 | 22524 ft | 442 kts | 54° |
| 2026-05-07 20:10 | 45.93090 | 9.68670 | 23050 ft | 446 kts | 55° |
| 2026-05-07 20:10 | 45.94807 | 9.72335 | 23547 ft | 450 kts | 55° |
| 2026-05-07 20:11 | 45.96551 | 9.76061 | 24014 ft | 454 kts | 55° |
| 2026-05-07 20:11 | 45.98331 | 9.79874 | 24453 ft | 458 kts | 54° |
| 2026-05-07 20:11 | 46.00111 | 9.83688 | 24877 ft | 462 kts | 54° |
| 2026-05-07 20:11 | 46.01900 | 9.87528 | 25280 ft | 466 kts | 54° |
| 2026-05-07 20:12 | 46.03704 | 9.91404 | 25682 ft | 470 kts | 54° |
| 2026-05-07 20:12 | 46.05506 | 9.95283 | 26067 ft | 473 kts | 54° |
| 2026-05-07 20:12 | 46.07352 | 9.99261 | 26427 ft | 477 kts | 54° |
| 2026-05-07 20:12 | 46.09172 | 10.03190 | 26779 ft | 480 kts | 54° |
| 2026-05-07 20:13 | 46.11025 | 10.07193 | 27176 ft | 482 kts | 54° |
| 2026-05-07 20:13 | 46.12915 | 10.11285 | 27669 ft | 481 kts | 54° |
| 2026-05-07 20:13 | 46.14769 | 10.15308 | 28154 ft | 481 kts | 54° |
| 2026-05-07 20:13 | 46.16619 | 10.19326 | 28599 ft | 481 kts | 54° |
| 2026-05-07 20:14 | 46.18452 | 10.23309 | 29022 ft | 482 kts | 54° |
| 2026-05-07 20:14 | 46.20314 | 10.27361 | 29441 ft | 482 kts | 54° |
| 2026-05-07 20:14 | 46.22155 | 10.31376 | 29850 ft | 483 kts | 54° |
| 2026-05-07 20:14 | 46.23988 | 10.35379 | 30266 ft | 483 kts | 54° |
| 2026-05-07 20:15 | 46.25844 | 10.39433 | 30675 ft | 483 kts | 53° |
| 2026-05-07 20:15 | 46.27699 | 10.43493 | 31072 ft | 483 kts | 53° |
| 2026-05-07 20:15 | 46.29522 | 10.47491 | 31485 ft | 483 kts | 53° |
| 2026-05-07 20:15 | 46.31369 | 10.51544 | 31895 ft | 483 kts | 53° |
| 2026-05-07 20:16 | 46.33192 | 10.55555 | 32288 ft | 482 kts | 53° |
| 2026-05-07 20:16 | 46.35047 | 10.59637 | 32631 ft | 483 kts | 53° |
| 2026-05-07 20:16 | 46.36883 | 10.63683 | 32923 ft | 484 kts | 53° |
| 2026-05-07 20:16 | 46.38727 | 10.67755 | 33164 ft | 486 kts | 54° |
| 2026-05-07 20:17 | 46.40576 | 10.71845 | 33405 ft | 488 kts | 54° |
| 2026-05-07 20:17 | 46.42427 | 10.75944 | 33662 ft | 489 kts | 54° |
| 2026-05-07 20:17 | 46.44288 | 10.80070 | 33914 ft | 490 kts | 54° |
| 2026-05-07 20:17 | 46.46144 | 10.84192 | 34045 ft | 493 kts | 54° |
| 2026-05-07 20:18 | 46.48012 | 10.88350 | 34046 ft | 493 kts | 54° |
| 2026-05-07 20:18 | 46.51738 | 10.96661 | 34056 ft | 493 kts | 54° |
| 2026-05-07 20:19 | 46.55461 | 11.04994 | 34062 ft | 493 kts | 54° |
| 2026-05-07 20:19 | 46.59283 | 11.13174 | 34057 ft | 489 kts | 46° |
| 2026-05-07 20:19 | 46.61690 | 11.16657 | 34075 ft | 483 kts | 35° |
| 2026-05-07 20:20 | 46.64379 | 11.19465 | 34084 ft | 478 kts | 28° |
| 2026-05-07 20:20 | 46.70020 | 11.24518 | 34081 ft | 477 kts | 26° |
| 2026-05-07 20:21 | 46.75680 | 11.29566 | 34084 ft | 477 kts | 26° |
| 2026-05-07 20:21 | 46.81306 | 11.34666 | 34079 ft | 477 kts | 27° |
| 2026-05-07 20:22 | 46.86922 | 11.39807 | 34072 ft | 477 kts | 27° |
| 2026-05-07 20:22 | 46.92549 | 11.44979 | 34075 ft | 476 kts | 27° |
| 2026-05-07 20:23 | 46.98096 | 11.50094 | 34105 ft | 476 kts | 27° |
| 2026-05-07 20:23 | 47.03707 | 11.55280 | 34107 ft | 475 kts | 27° |
| 2026-05-07 20:24 | 47.09279 | 11.60443 | 34104 ft | 476 kts | 27° |
| 2026-05-07 20:24 | 47.14874 | 11.65638 | 34094 ft | 476 kts | 28° |
| 2026-05-07 20:25 | 47.20455 | 11.70837 | 34075 ft | 475 kts | 28° |
| 2026-05-07 20:25 | 47.26019 | 11.76035 | 34067 ft | 475 kts | 28° |
| 2026-05-07 20:26 | 47.31589 | 11.81248 | 34060 ft | 475 kts | 28° |
| 2026-05-07 20:26 | 47.37134 | 11.86453 | 34066 ft | 474 kts | 28° |
| 2026-05-07 20:27 | 47.42689 | 11.91677 | 34080 ft | 474 kts | 28° |
| 2026-05-07 20:27 | 47.48222 | 11.96896 | 34088 ft | 474 kts | 28° |
| 2026-05-07 20:28 | 47.53760 | 12.02135 | 34079 ft | 474 kts | 28° |
| 2026-05-07 20:28 | 47.59294 | 12.07380 | 34073 ft | 474 kts | 28° |
| 2026-05-07 20:29 | 47.64854 | 12.12666 | 34073 ft | 473 kts | 28° |
| 2026-05-07 20:29 | 47.70354 | 12.17907 | 34070 ft | 473 kts | 28° |
| 2026-05-07 20:30 | 47.75875 | 12.23179 | 34056 ft | 473 kts | 28° |
| 2026-05-07 20:30 | 47.81368 | 12.28439 | 34052 ft | 473 kts | 29° |
| 2026-05-07 20:31 | 47.86898 | 12.33751 | 34050 ft | 474 kts | 29° |
| 2026-05-07 20:31 | 47.92419 | 12.39067 | 34052 ft | 473 kts | 29° |
| 2026-05-07 20:32 | 47.97932 | 12.44390 | 34043 ft | 472 kts | 29° |
| 2026-05-07 20:32 | 48.03433 | 12.49714 | 34039 ft | 472 kts | 29° |
| 2026-05-07 20:33 | 48.08913 | 12.55032 | 34048 ft | 472 kts | 29° |
| 2026-05-07 20:33 | 48.14401 | 12.60368 | 34042 ft | 472 kts | 29° |
| 2026-05-07 20:34 | 48.19911 | 12.65738 | 34045 ft | 472 kts | 30° |
| 2026-05-07 20:34 | 48.25389 | 12.71096 | 34047 ft | 472 kts | 30° |
| 2026-05-07 20:35 | 48.30886 | 12.76486 | 34041 ft | 472 kts | 30° |
| 2026-05-07 20:35 | 48.36364 | 12.81870 | 34046 ft | 472 kts | 30° |
| 2026-05-07 20:36 | 48.41835 | 12.87265 | 34046 ft | 471 kts | 30° |
| 2026-05-07 20:36 | 48.47310 | 12.92673 | 34042 ft | 471 kts | 30° |
| 2026-05-07 20:37 | 48.52792 | 12.98099 | 34039 ft | 471 kts | 30° |
| 2026-05-07 20:37 | 48.58251 | 13.03522 | 34044 ft | 471 kts | 30° |
| 2026-05-07 20:38 | 48.63676 | 13.08926 | 34039 ft | 471 kts | 31° |
| 2026-05-07 20:38 | 48.69129 | 13.14371 | 34048 ft | 470 kts | 31° |
| 2026-05-07 20:39 | 48.74560 | 13.19809 | 34044 ft | 470 kts | 31° |
| 2026-05-07 20:39 | 48.79995 | 13.25263 | 34043 ft | 469 kts | 31° |
| 2026-05-07 20:40 | 48.85404 | 13.30707 | 33764 ft | 468 kts | 31° |
| 2026-05-07 20:40 | 48.88113 | 13.33438 | 33580 ft | 465 kts | 31° |
| 2026-05-07 20:40 | 48.90786 | 13.36135 | 33295 ft | 459 kts | 31° |
| 2026-05-07 20:40 | 48.93417 | 13.38792 | 32635 ft | 460 kts | 31° |
| 2026-05-07 20:41 | 48.96070 | 13.41473 | 31540 ft | 467 kts | 31° |
| 2026-05-07 20:41 | 48.98776 | 13.44210 | 29880 ft | 471 kts | 31° |
| 2026-05-07 20:41 | 49.01488 | 13.46963 | 28345 ft | 478 kts | 31° |
| 2026-05-07 20:41 | 49.04232 | 13.49752 | 27247 ft | 478 kts | 31° |
| 2026-05-07 20:42 | 49.06975 | 13.52547 | 26270 ft | 477 kts | 31° |
| 2026-05-07 20:42 | 49.09712 | 13.55337 | 25531 ft | 470 kts | 31° |
| 2026-05-07 20:42 | 49.12419 | 13.58101 | 24878 ft | 463 kts | 31° |
| 2026-05-07 20:42 | 49.15039 | 13.60779 | 24194 ft | 457 kts | 31° |
| 2026-05-07 20:43 | 49.17665 | 13.63467 | 23474 ft | 453 kts | 31° |
| 2026-05-07 20:43 | 49.20262 | 13.66128 | 22761 ft | 448 kts | 32° |
| 2026-05-07 20:43 | 49.22836 | 13.68768 | 22046 ft | 444 kts | 32° |
| 2026-05-07 20:43 | 49.25359 | 13.71359 | 21341 ft | 440 kts | 32° |
| 2026-05-07 20:44 | 49.27898 | 13.73970 | 20649 ft | 436 kts | 32° |
| 2026-05-07 20:44 | 49.30394 | 13.76539 | 19959 ft | 432 kts | 32° |
| 2026-05-07 20:44 | 49.32864 | 13.79084 | 19250 ft | 429 kts | 32° |
| 2026-05-07 20:44 | 49.35310 | 13.81608 | 18513 ft | 427 kts | 32° |
| 2026-05-07 20:45 | 49.37762 | 13.84141 | 17890 ft | 422 kts | 32° |
| 2026-05-07 20:45 | 49.40187 | 13.86648 | 17297 ft | 417 kts | 32° |
| 2026-05-07 20:45 | 49.42541 | 13.89086 | 16724 ft | 412 kts | 32° |
| 2026-05-07 20:45 | 49.44923 | 13.91557 | 16154 ft | 407 kts | 32° |
| 2026-05-07 20:46 | 49.47232 | 13.93953 | 15603 ft | 403 kts | 32° |
| 2026-05-07 20:46 | 49.49536 | 13.96354 | 15049 ft | 399 kts | 33° |
| 2026-05-07 20:46 | 49.51580 | 13.99170 | 14548 ft | 397 kts | 46° |
| 2026-05-07 20:46 | 49.53305 | 14.02414 | 14124 ft | 390 kts | 50° |
| 2026-05-07 20:47 | 49.54958 | 14.05696 | 13724 ft | 385 kts | 50° |
| 2026-05-07 20:47 | 49.56614 | 14.08941 | 13318 ft | 383 kts | 50° |
| 2026-05-07 20:47 | 49.58258 | 14.12097 | 12859 ft | 380 kts | 49° |
| 2026-05-07 20:47 | 49.59930 | 14.15259 | 12354 ft | 377 kts | 49° |
| 2026-05-07 20:48 | 49.61568 | 14.18327 | 11848 ft | 374 kts | 49° |
| 2026-05-07 20:48 | 49.63226 | 14.21416 | 11338 ft | 371 kts | 49° |
| 2026-05-07 20:48 | 49.64858 | 14.24452 | 11010 ft | 359 kts | 49° |
| 2026-05-07 20:48 | 49.66401 | 14.27322 | 10828 ft | 339 kts | 49° |
| 2026-05-07 20:49 | 49.67849 | 14.30020 | 10642 ft | 319 kts | 49° |
| 2026-05-07 20:49 | 49.69214 | 14.32563 | 10471 ft | 302 kts | 48° |
| 2026-05-07 20:49 | 49.70676 | 14.34758 | 10074 ft | 292 kts | 32° |
| 2026-05-07 20:49 | 49.72422 | 14.36320 | 9487 ft | 290 kts | 25° |
| 2026-05-07 20:50 | 49.74213 | 14.37728 | 8931 ft | 288 kts | 25° |
| 2026-05-07 20:50 | 49.75963 | 14.39134 | 8400 ft | 285 kts | 26° |
| 2026-05-07 20:50 | 49.77692 | 14.40582 | 7868 ft | 283 kts | 27° |
| 2026-05-07 20:50 | 49.79410 | 14.42065 | 7364 ft | 279 kts | 27° |
| 2026-05-07 20:51 | 49.81071 | 14.43526 | 6962 ft | 273 kts | 27° |
| 2026-05-07 20:51 | 49.82699 | 14.44970 | 6614 ft | 270 kts | 27° |
| 2026-05-07 20:51 | 49.84318 | 14.46412 | 6274 ft | 268 kts | 28° |
| 2026-05-07 20:51 | 49.85930 | 14.47853 | 5935 ft | 266 kts | 28° |
| 2026-05-07 20:52 | 49.87602 | 14.48967 | 5523 ft | 263 kts | 6° |
| 2026-05-07 20:52 | 49.89455 | 14.48811 | 5104 ft | 281 kts | 347° |
| 2026-05-07 20:52 | 49.91385 | 14.48165 | 4761 ft | 289 kts | 346° |
| 2026-05-07 20:52 | 49.93381 | 14.47523 | 4572 ft | 290 kts | 347° |
| 2026-05-07 20:53 | 49.95346 | 14.46987 | 4449 ft | 286 kts | 349° |
| 2026-05-07 20:53 | 49.97230 | 14.46532 | 4302 ft | 263 kts | 350° |
| 2026-05-07 20:53 | 49.98980 | 14.46135 | 4120 ft | 243 kts | 349° |
| 2026-05-07 20:53 | 50.00451 | 14.45274 | 3922 ft | 221 kts | 323° |
| 2026-05-07 20:54 | 50.01542 | 14.43681 | 3635 ft | 210 kts | 310° |
| 2026-05-07 20:54 | 50.02426 | 14.41960 | 3351 ft | 201 kts | 307° |
| 2026-05-07 20:54 | 50.03253 | 14.40217 | 3084 ft | 196 kts | 307° |
| 2026-05-07 20:54 | 50.04035 | 14.38561 | 2867 ft | 186 kts | 307° |
| 2026-05-07 20:55 | 50.04778 | 14.37010 | 2650 ft | 173 kts | 308° |
| 2026-05-07 20:55 | 50.05480 | 14.35554 | 2383 ft | 163 kts | 308° |
| 2026-05-07 20:55 | 50.06143 | 14.34181 | 2162 ft | 150 kts | 308° |
| 2026-05-07 20:55 | 50.06738 | 14.32949 | 1975 ft | 137 kts | 309° |
| 2026-05-07 20:56 | 50.07297 | 14.31802 | 1777 ft | 132 kts | 308° |
| 2026-05-07 20:56 | 50.07843 | 14.30646 | 1620 ft | 132 kts | 308° |
| 2026-05-07 20:56 | 50.08397 | 14.29508 | 1448 ft | 131 kts | 309° |
| 2026-05-07 20:56 | 50.08943 | 14.28374 | 1271 ft | 131 kts | 309° |
| 2026-05-07 20:57 | 50.09471 | 14.27289 | 1191 ft | 111 kts | 307° |
| 2026-05-07 20:57 | 50.09828 | 14.26552 | 1182 ft | 60 kts | 307° |
| 2026-05-07 20:57 | 50.10050 | 14.26091 | 1174 ft | 46 kts | 307° |
| 2026-05-07 20:57 | 50.10215 | 14.25766 | 1174 ft | 33 kts | 317° |
| 2026-05-07 20:58 | 50.10364 | 14.25658 | 1174 ft | 21 kts | 348° |
| 2026-05-07 20:58 | 50.10454 | 14.25666 | 1174 ft | 11 kts | 16° |
| 2026-05-07 20:58 | 50.10491 | 14.25767 | 1174 ft | 12 kts | 79° |
| 2026-05-07 20:58 | 50.10510 | 14.25922 | 1174 ft | 16 kts | 79° |
| 2026-05-07 20:59 | 50.10532 | 14.26093 | 1174 ft | 14 kts | 78° |
| 2026-05-07 20:59 | 50.10529 | 14.26239 | 1174 ft | 13 kts | 121° |
| 2026-05-07 20:59 | 50.10473 | 14.26365 | 1174 ft | 14 kts | 124° |
| 2026-05-07 20:59 | 50.10422 | 14.26481 | 1174 ft | 9 kts | 124° |
| 2026-05-07 21:00 | 50.10404 | 14.26526 | 1174 ft | 3 kts | 104° |
| 2026-05-07 21:00 | 50.10415 | 14.26557 | 1174 ft | 3 kts | 43° |
| 2026-05-07 21:00 | 50.10430 | 14.26574 | 1174 ft | 0 kts | 34° |
| 2026-05-07 21:00 | 50.10434 | 14.26578 | 1174 ft | 0 kts | 34° |